createdAt,value
2023-02-26T00:02:31.740Z,90.96
2023-02-26T00:07:35.014Z,90.90
2023-02-26T00:12:39.445Z,91.26
2023-02-26T00:18:08.339Z,90.96
2023-02-26T00:23:14.627Z,90.54
2023-02-26T00:28:17.735Z,90.76
2023-02-26T00:33:21.591Z,89.81
2023-02-26T00:38:24.980Z,88.30
2023-02-26T00:43:28.019Z,88.82
2023-02-26T00:49:19.153Z,88.14
2023-02-26T00:54:26.302Z,88.07
2023-02-26T00:59:29.067Z,88.10
2023-02-26T01:04:32.474Z,87.75
2023-02-26T01:09:36.797Z,86.78
2023-02-26T01:14:40.066Z,86.31
2023-02-26T01:19:59.270Z,85.22
2023-02-26T01:25:06.372Z,84.87
2023-02-26T01:30:10.185Z,84.40
2023-02-26T01:35:48.091Z,84.04
2023-02-26T01:41:08.134Z,83.35
2023-02-26T01:47:05.388Z,82.83
2023-02-26T01:52:50.188Z,82.40
2023-02-26T01:57:57.688Z,82.16
2023-02-26T02:03:01.399Z,82.16
2023-02-26T02:08:04.809Z,83.09
2023-02-26T02:13:41.945Z,83.97
2023-02-26T02:19:15.540Z,81.97
2023-02-26T02:24:27.478Z,80.02
2023-02-26T02:30:23.078Z,80.45
2023-02-26T02:35:37.318Z,80.82
2023-02-26T02:40:44.187Z,80.38
2023-02-26T02:46:15.983Z,80.89
2023-02-26T02:51:27.001Z,80.49
2023-02-26T02:56:36.969Z,80.23
2023-02-26T03:01:39.861Z,79.50
2023-02-26T03:06:46.796Z,79.94
2023-02-26T03:11:49.634Z,79.25
2023-02-26T03:17:14.901Z,79.41
2023-02-26T03:22:44.774Z,80.65
2023-02-26T03:28:18.808Z,80.30
2023-02-26T03:34:09.120Z,80.75
2023-02-26T03:39:16.514Z,80.71
2023-02-26T03:44:25.646Z,81.14
2023-02-26T03:49:33.781Z,80.10
2023-02-26T03:54:41.951Z,78.76
2023-02-26T04:00:06.052Z,77.86
2023-02-26T04:05:14.936Z,76.26
2023-02-26T04:10:21.826Z,76.64
2023-02-26T04:15:24.942Z,76.07
2023-02-26T04:20:29.406Z,76.00
2023-02-26T04:25:32.866Z,78.09
2023-02-26T04:30:35.717Z,76.96
2023-02-26T04:35:38.817Z,77.47
2023-02-26T04:40:41.584Z,77.25
2023-02-26T04:45:48.411Z,78.50
2023-02-26T04:50:51.171Z,78.61
2023-02-26T04:55:53.923Z,79.19
2023-02-26T05:00:57.133Z,79.80
2023-02-26T05:06:00.177Z,79.82
2023-02-26T05:11:02.921Z,80.21
2023-02-26T05:16:07.068Z,80.83
2023-02-26T05:21:09.852Z,79.45
2023-02-26T05:26:12.937Z,77.73
2023-02-26T05:31:16.232Z,78.06
2023-02-26T05:36:19.156Z,78.35
2023-02-26T05:41:21.865Z,79.42
2023-02-26T05:46:25.134Z,79.86
2023-02-26T05:51:31.505Z,79.26
2023-02-26T05:56:34.282Z,80.04
2023-02-26T06:01:37.875Z,81.11
2023-02-26T06:06:40.762Z,81.27
2023-02-26T06:11:43.536Z,79.74
2023-02-26T06:16:46.361Z,75.44
2023-02-26T06:21:49.121Z,74.89
2023-02-26T06:26:53.445Z,74.18
2023-02-26T06:31:56.346Z,74.67
2023-02-26T06:36:59.363Z,75.17
2023-02-26T06:42:03.260Z,75.79
2023-02-26T06:47:06.452Z,74.85
2023-02-26T06:52:09.435Z,72.93
2023-02-26T06:57:12.212Z,73.07
2023-02-26T07:02:20.933Z,71.65
2023-02-26T07:07:23.729Z,71.18
2023-02-26T07:12:26.754Z,71.48
2023-02-26T07:17:29.547Z,72.27
2023-02-26T07:22:33.198Z,71.69
2023-02-26T07:27:36.189Z,72.64
2023-02-26T07:32:39.081Z,73.88
2023-02-26T07:37:41.899Z,72.10
2023-02-26T07:42:44.941Z,70.78
2023-02-26T07:47:51.468Z,69.73
2023-02-26T07:52:54.353Z,70.21
2023-02-26T07:57:57.426Z,67.44
2023-02-26T08:03:00.195Z,66.59
2023-02-26T08:08:03.341Z,64.69
2023-02-26T08:13:06.193Z,64.84
2023-02-26T08:18:08.971Z,65.25
2023-02-26T08:23:11.755Z,66.26
2023-02-26T08:28:16.177Z,67.37
2023-02-26T08:33:19.485Z,66.25
2023-02-26T08:38:22.312Z,67.30
2023-02-26T08:43:26.015Z,66.42
2023-02-26T08:48:28.814Z,65.40
2023-02-26T08:53:31.592Z,65.15
2023-02-26T08:58:34.377Z,66.77
2023-02-26T09:03:37.186Z,65.20
2023-02-26T09:08:40.051Z,63.65
2023-02-26T09:13:42.913Z,65.33
2023-02-26T09:18:45.858Z,66.96
2023-02-26T09:23:48.736Z,67.79
2023-02-26T09:28:52.974Z,68.01
2023-02-26T09:33:55.859Z,67.09
2023-02-26T09:38:58.599Z,65.75
2023-02-26T09:44:19.698Z,67.09
2023-02-26T09:49:53.179Z,67.03
2023-02-26T09:55:00.206Z,66.30
2023-02-26T10:00:19.109Z,67.01
2023-02-26T10:05:44.090Z,67.10
2023-02-26T10:10:59.120Z,65.12
2023-02-26T10:16:12.518Z,65.46
2023-02-26T10:21:23.321Z,65.77
2023-02-26T10:26:44.036Z,66.18
2023-02-26T10:32:14.962Z,67.23
2023-02-26T10:37:44.878Z,67.41
2023-02-26T10:43:20.154Z,66.97
2023-02-26T10:48:34.535Z,67.34
2023-02-26T10:53:39.775Z,68.12
2023-02-26T10:58:43.427Z,67.24
2023-02-26T11:04:09.915Z,67.63
2023-02-26T11:09:38.023Z,67.86
2023-02-26T11:14:42.676Z,66.67
2023-02-26T11:20:26.642Z,64.99
2023-02-26T11:25:33.122Z,63.42
2023-02-26T11:30:38.136Z,63.33
2023-02-26T11:35:40.859Z,60.21
2023-02-26T11:40:43.716Z,57.56
2023-02-26T11:45:52.574Z,57.69
2023-02-26T11:50:59.215Z,58.21
2023-02-26T11:56:12.502Z,58.14
2023-02-26T12:01:17.158Z,58.57
2023-02-26T12:06:22.277Z,59.22
2023-02-26T12:11:44.329Z,58.92
2023-02-26T12:17:22.043Z,57.69
2023-02-26T12:23:00.407Z,58.17
2023-02-26T12:28:24.260Z,58.96
2023-02-26T12:33:53.493Z,57.98
2023-02-26T12:40:06.823Z,58.74
2023-02-26T12:45:20.693Z,59.65
2023-02-26T12:50:54.155Z,60.18
2023-02-26T12:56:25.115Z,60.44
2023-02-26T13:01:35.634Z,60.31
2023-02-26T13:07:12.810Z,60.95
2023-02-26T13:12:30.865Z,58.74
2023-02-26T13:18:03.039Z,57.47
2023-02-26T13:23:22.456Z,56.69
2023-02-26T13:28:42.775Z,56.95
2023-02-26T13:33:45.808Z,54.75
2023-02-26T13:39:36.114Z,55.37
2023-02-26T13:45:03.803Z,55.39
2023-02-26T13:50:30.645Z,54.75
2023-02-26T13:55:47.546Z,54.98
2023-02-26T14:01:11.065Z,54.76
2023-02-26T14:06:40.471Z,55.47
2023-02-26T14:11:46.812Z,55.18
2023-02-26T14:17:08.050Z,54.99
2023-02-26T14:22:30.086Z,55.46
2023-02-26T14:27:35.763Z,56.06
2023-02-26T14:32:50.195Z,56.48
2023-02-26T14:38:20.650Z,55.76
2023-02-26T14:43:36.644Z,56.15
2023-02-26T14:48:39.548Z,56.69
2023-02-26T14:54:39.690Z,56.91
2023-02-26T15:00:18.790Z,56.66
2023-02-26T15:05:29.929Z,57.58
2023-02-26T15:11:12.492Z,57.65
2023-02-26T15:16:50.291Z,57.77
2023-02-26T15:22:22.694Z,58.09
2023-02-26T15:27:25.609Z,57.90
2023-02-26T15:32:30.944Z,58.60
2023-02-26T15:37:35.582Z,59.22
2023-02-26T15:42:40.182Z,58.70
2023-02-26T15:47:42.932Z,60.02
2023-02-26T15:52:55.936Z,60.92
2023-02-26T15:57:59.053Z,61.67
2023-02-26T16:03:01.832Z,62.19
2023-02-26T16:08:04.841Z,63.15
2023-02-26T16:13:08.945Z,63.26
2023-02-26T16:18:18.793Z,63.90
2023-02-26T16:23:24.908Z,64.03
2023-02-26T16:28:46.980Z,63.87
2023-02-26T16:34:06.332Z,64.87
2023-02-26T16:39:37.649Z,65.45
2023-02-26T16:44:57.575Z,66.14
2023-02-26T16:50:00.417Z,66.96
2023-02-26T16:55:04.812Z,67.42
2023-02-26T17:00:19.872Z,67.87
2023-02-26T17:05:25.406Z,68.07
2023-02-26T17:10:47.649Z,68.88
2023-02-26T17:15:51.344Z,69.07
2023-02-26T17:20:54.264Z,69.42
2023-02-26T17:25:57.354Z,69.78
2023-02-26T17:31:00.200Z,70.29
2023-02-26T17:36:05.302Z,70.62
2023-02-26T17:41:09.563Z,70.90
2023-02-26T17:46:12.638Z,71.31
2023-02-26T17:51:16.676Z,71.34
2023-02-26T17:56:32.261Z,71.61
2023-02-26T18:01:35.464Z,72.05
2023-02-26T18:06:38.462Z,71.89
2023-02-26T18:11:42.115Z,71.79
2023-02-26T18:16:46.777Z,71.85
2023-02-26T18:21:49.660Z,71.69
2023-02-26T18:26:53.678Z,71.79
2023-02-26T18:31:56.612Z,71.61
2023-02-26T18:36:59.619Z,71.21
2023-02-26T18:42:02.369Z,71.11
2023-02-26T18:47:05.297Z,70.42
2023-02-26T18:52:08.158Z,70.61
2023-02-26T18:57:11.050Z,70.62
2023-02-26T19:02:14.094Z,70.61
2023-02-26T19:07:18.626Z,70.66
2023-02-26T19:12:23.266Z,69.70
2023-02-26T19:17:26.174Z,68.91
2023-02-26T19:22:28.977Z,68.35
2023-02-26T19:27:31.890Z,67.65
2023-02-26T19:32:34.902Z,67.57
2023-02-26T19:37:39.128Z,68.00
2023-02-26T19:42:42.476Z,67.78
2023-02-26T19:47:45.322Z,67.78
2023-02-26T19:52:48.206Z,67.35
2023-02-26T19:57:50.954Z,66.43
2023-02-26T20:02:55.589Z,66.33
2023-02-26T20:07:58.502Z,66.47
2023-02-26T20:13:01.660Z,67.04
2023-02-26T20:18:04.510Z,66.23
2023-02-26T20:23:07.439Z,65.84
2023-02-26T20:28:11.110Z,65.68
2023-02-26T20:33:14.216Z,65.66
2023-02-26T20:38:18.326Z,64.68
2023-02-26T20:43:21.065Z,64.16
2023-02-26T20:48:24.170Z,63.77
2023-02-26T20:53:27.134Z,63.66
2023-02-26T20:58:29.952Z,63.01
2023-02-26T21:03:32.803Z,62.26
2023-02-26T21:08:35.634Z,61.57
2023-02-26T21:13:38.368Z,61.56
2023-02-26T21:18:41.170Z,60.86
2023-02-26T21:23:44.439Z,61.14
2023-02-26T21:28:49.110Z,61.44
2023-02-26T21:33:52.839Z,61.38
2023-02-26T21:38:56.423Z,61.33
2023-02-26T21:43:59.198Z,61.43
2023-02-26T21:49:02.019Z,61.40
2023-02-26T21:54:05.218Z,61.46
2023-02-26T21:59:08.140Z,61.53
2023-02-26T22:04:11.125Z,62.13
2023-02-26T22:09:14.029Z,62.72
2023-02-26T22:14:16.895Z,62.82
2023-02-26T22:19:19.743Z,63.28
2023-02-26T22:24:23.686Z,63.50
2023-02-26T22:29:26.487Z,64.45
2023-02-26T22:34:33.129Z,65.35
2023-02-26T22:39:35.981Z,66.27
2023-02-26T22:44:39.788Z,66.93
2023-02-26T22:49:42.597Z,67.61
2023-02-26T22:54:46.503Z,68.37
2023-02-26T22:59:49.294Z,68.79
2023-02-26T23:04:52.069Z,69.20
2023-02-26T23:09:54.859Z,69.31
2023-02-26T23:14:57.887Z,69.79
2023-02-26T23:20:00.688Z,70.05
2023-02-26T23:25:03.876Z,70.14
2023-02-26T23:30:08.376Z,70.11
2023-02-26T23:35:11.103Z,70.06
2023-02-26T23:40:14.730Z,70.29
2023-02-26T23:45:17.775Z,70.10
2023-02-26T23:50:21.041Z,69.84
2023-02-26T23:55:24.601Z,70.04
